sensor_id;sensor_type;location;lat;lon;timestamp;temperature;humidity
3037;DHT22;1528;52.550;13.408;2023-03-14T00:01:59;14.20;42.30
3037;DHT22;1528;52.550;13.408;2023-03-14T00:04:46;14.20;42.20
3037;DHT22;1528;52.550;13.408;2023-03-14T00:07:33;14.20;42.10
3037;DHT22;1528;52.550;13.408;2023-03-14T00:10:19;14.10;42.30
3037;DHT22;1528;52.550;13.408;2023-03-14T00:13:05;14.10;42.10
3037;DHT22;1528;52.550;13.408;2023-03-14T00:15:50;14.10;42.10
3037;DHT22;1528;52.550;13.408;2023-03-14T00:18:36;14.00;42.00
3037;DHT22;1528;52.550;13.408;2023-03-14T00:21:23;14.10;41.70
3037;DHT22;1528;52.550;13.408;2023-03-14T00:24:09;14.00;41.80
3037;DHT22;1528;52.550;13.408;2023-03-14T00:26:54;14.10;41.70
3037;DHT22;1528;52.550;13.408;2023-03-14T00:29:40;14.10;41.90
3037;DHT22;1528;52.550;13.408;2023-03-14T00:32:27;14.00;42.20
3037;DHT22;1528;52.550;13.408;2023-03-14T00:35:12;13.80;42.70
3037;DHT22;1528;52.550;13.408;2023-03-14T00:38:00;13.80;42.90
3037;DHT22;1528;52.550;13.408;2023-03-14T00:40:45;13.80;42.70
3037;DHT22;1528;52.550;13.408;2023-03-14T00:43:31;13.90;42.60
3037;DHT22;1528;52.550;13.408;2023-03-14T00:46:17;13.80;42.90
3037;DHT22;1528;52.550;13.408;2023-03-14T00:49:02;13.80;42.70
3037;DHT22;1528;52.550;13.408;2023-03-14T00:51:48;13.80;43.20
3037;DHT22;1528;52.550;13.408;2023-03-14T00:54:36;13.80;43.40
3037;DHT22;1528;52.550;13.408;2023-03-14T00:57:22;13.80;43.90
3037;DHT22;1528;52.550;13.408;2023-03-14T01:00:08;13.80;43.60
3037;DHT22;1528;52.550;13.408;2023-03-14T01:02:55;13.60;43.80
3037;DHT22;1528;52.550;13.408;2023-03-14T01:05:41;13.70;44.00
3037;DHT22;1528;52.550;13.408;2023-03-14T01:08:26;13.60;44.20
3037;DHT22;1528;52.550;13.408;2023-03-14T01:11:16;13.60;44.10
3037;DHT22;1528;52.550;13.408;2023-03-14T01:14:02;13.70;44.00
3037;DHT22;1528;52.550;13.408;2023-03-14T01:16:48;13.60;44.20
3037;DHT22;1528;52.550;13.408;2023-03-14T01:19:34;13.50;44.50
3037;DHT22;1528;52.550;13.408;2023-03-14T01:22:19;13.50;44.80
3037;DHT22;1528;52.550;13.408;2023-03-14T01:25:08;13.50;44.80
3037;DHT22;1528;52.550;13.408;2023-03-14T01:27:55;13.40;45.80
3037;DHT22;1528;52.550;13.408;2023-03-14T01:30:40;13.40;45.30
3037;DHT22;1528;52.550;13.408;2023-03-14T01:33:26;13.40;45.20
3037;DHT22;1528;52.550;13.408;2023-03-14T01:36:12;13.40;45.30
3037;DHT22;1528;52.550;13.408;2023-03-14T01:38:57;13.40;45.40
3037;DHT22;1528;52.550;13.408;2023-03-14T01:41:43;13.40;45.20
3037;DHT22;1528;52.550;13.408;2023-03-14T01:44:49;13.40;45.60
3037;DHT22;1528;52.550;13.408;2023-03-14T01:47:35;13.50;45.10
3037;DHT22;1528;52.550;13.408;2023-03-14T01:50:20;13.50;45.20
3037;DHT22;1528;52.550;13.408;2023-03-14T01:53:06;13.50;44.80
3037;DHT22;1528;52.550;13.408;2023-03-14T01:55:52;13.50;45.20
3037;DHT22;1528;52.550;13.408;2023-03-14T01:58:42;13.40;45.20
3037;DHT22;1528;52.550;13.408;2023-03-14T02:01:30;13.50;45.40
3037;DHT22;1528;52.550;13.408;2023-03-14T02:04:17;13.50;45.30
3037;DHT22;1528;52.550;13.408;2023-03-14T02:07:07;13.50;44.90
3037;DHT22;1528;52.550;13.408;2023-03-14T02:09:55;13.50;45.10
3037;DHT22;1528;52.550;13.408;2023-03-14T02:12:41;13.60;44.90
3037;DHT22;1528;52.550;13.408;2023-03-14T02:15:27;13.40;45.00
3037;DHT22;1528;52.550;13.408;2023-03-14T02:18:16;13.30;45.60
3037;DHT22;1528;52.550;13.408;2023-03-14T02:21:07;13.40;45.50
3037;DHT22;1528;52.550;13.408;2023-03-14T02:24:01;13.20;46.00
3037;DHT22;1528;52.550;13.408;2023-03-14T02:27:05;13.10;46.60
3037;DHT22;1528;52.550;13.408;2023-03-14T02:29:53;13.30;46.00
3037;DHT22;1528;52.550;13.408;2023-03-14T02:32:43;13.40;45.40
3037;DHT22;1528;52.550;13.408;2023-03-14T02:35:32;13.40;45.60
3037;DHT22;1528;52.550;13.408;2023-03-14T02:38:22;13.40;45.30
3037;DHT22;1528;52.550;13.408;2023-03-14T02:41:10;13.40;45.20
3037;DHT22;1528;52.550;13.408;2023-03-14T02:43:57;13.30;45.50
3037;DHT22;1528;52.550;13.408;2023-03-14T02:46:42;13.50;45.10
3037;DHT22;1528;52.550;13.408;2023-03-14T02:49:30;13.50;44.50
3037;DHT22;1528;52.550;13.408;2023-03-14T02:52:17;13.50;44.30
3037;DHT22;1528;52.550;13.408;2023-03-14T02:55:03;13.50;44.30
3037;DHT22;1528;52.550;13.408;2023-03-14T02:57:48;13.50;44.30
3037;DHT22;1528;52.550;13.408;2023-03-14T03:00:36;13.40;44.50
3037;DHT22;1528;52.550;13.408;2023-03-14T03:03:22;13.30;44.70
3037;DHT22;1528;52.550;13.408;2023-03-14T03:06:07;13.30;44.50
3037;DHT22;1528;52.550;13.408;2023-03-14T03:08:53;13.20;44.80
3037;DHT22;1528;52.550;13.408;2023-03-14T03:11:38;13.30;44.50
3037;DHT22;1528;52.550;13.408;2023-03-14T03:14:24;13.30;44.40
3037;DHT22;1528;52.550;13.408;2023-03-14T03:17:11;13.20;44.50
3037;DHT22;1528;52.550;13.408;2023-03-14T03:19:57;13.30;44.60
3037;DHT22;1528;52.550;13.408;2023-03-14T03:22:42;13.20;44.80
3037;DHT22;1528;52.550;13.408;2023-03-14T03:25:28;13.10;44.90
3037;DHT22;1528;52.550;13.408;2023-03-14T03:28:13;13.20;44.50
3037;DHT22;1528;52.550;13.408;2023-03-14T03:31:05;13.10;44.80
3037;DHT22;1528;52.550;13.408;2023-03-14T03:33:52;13.20;44.40
3037;DHT22;1528;52.550;13.408;2023-03-14T03:36:38;13.10;44.80
3037;DHT22;1528;52.550;13.408;2023-03-14T03:39:23;13.20;44.60
3037;DHT22;1528;52.550;13.408;2023-03-14T03:42:09;13.20;44.60
3037;DHT22;1528;52.550;13.408;2023-03-14T03:44:54;13.20;44.10
3037;DHT22;1528;52.550;13.408;2023-03-14T03:47:40;13.20;44.50
3037;DHT22;1528;52.550;13.408;2023-03-14T03:50:27;13.20;44.20
3037;DHT22;1528;52.550;13.408;2023-03-14T03:53:13;13.00;44.70
3037;DHT22;1528;52.550;13.408;2023-03-14T03:55:59;13.10;44.30
3037;DHT22;1528;52.550;13.408;2023-03-14T03:58:46;13.20;43.70
3037;DHT22;1528;52.550;13.408;2023-03-14T04:01:31;13.10;43.90
3037;DHT22;1528;52.550;13.408;2023-03-14T04:04:17;13.00;45.20
3037;DHT22;1528;52.550;13.408;2023-03-14T04:07:04;13.00;44.30
3037;DHT22;1528;52.550;13.408;2023-03-14T04:09:49;12.90;44.60
3037;DHT22;1528;52.550;13.408;2023-03-14T04:12:35;12.90;45.00
3037;DHT22;1528;52.550;13.408;2023-03-14T04:15:21;12.90;44.70
3037;DHT22;1528;52.550;13.408;2023-03-14T04:18:07;12.90;44.50
3037;DHT22;1528;52.550;13.408;2023-03-14T04:20:53;12.90;44.40
3037;DHT22;1528;52.550;13.408;2023-03-14T04:23:40;13.00;44.10
3037;DHT22;1528;52.550;13.408;2023-03-14T04:26:25;13.00;44.00
3037;DHT22;1528;52.550;13.408;2023-03-14T04:29:11;12.90;44.00
3037;DHT22;1528;52.550;13.408;2023-03-14T04:31:56;13.10;43.30
3037;DHT22;1528;52.550;13.408;2023-03-14T04:34:42;13.00;43.50
3037;DHT22;1528;52.550;13.408;2023-03-14T04:37:28;12.80;44.00
3037;DHT22;1528;52.550;13.408;2023-03-14T04:40:15;13.00;43.20
3037;DHT22;1528;52.550;13.408;2023-03-14T04:43:00;12.90;43.40
3037;DHT22;1528;52.550;13.408;2023-03-14T04:45:46;13.00;42.80
3037;DHT22;1528;52.550;13.408;2023-03-14T04:48:31;13.00;42.90
3037;DHT22;1528;52.550;13.408;2023-03-14T04:51:17;12.90;43.30
3037;DHT22;1528;52.550;13.408;2023-03-14T04:54:03;12.90;42.70
3037;DHT22;1528;52.550;13.408;2023-03-14T04:56:50;12.80;43.10
3037;DHT22;1528;52.550;13.408;2023-03-14T04:59:37;13.00;42.70
3037;DHT22;1528;52.550;13.408;2023-03-14T05:02:22;12.80;43.20
3037;DHT22;1528;52.550;13.408;2023-03-14T05:05:08;12.90;43.10
3037;DHT22;1528;52.550;13.408;2023-03-14T05:07:53;12.80;43.20
3037;DHT22;1528;52.550;13.408;2023-03-14T05:10:39;13.00;43.60
3037;DHT22;1528;52.550;13.408;2023-03-14T05:13:26;12.90;43.20
3037;DHT22;1528;52.550;13.408;2023-03-14T05:16:12;12.90;43.80
3037;DHT22;1528;52.550;13.408;2023-03-14T05:18:58;12.90;42.90
3037;DHT22;1528;52.550;13.408;2023-03-14T05:21:45;12.90;42.80
3037;DHT22;1528;52.550;13.408;2023-03-14T05:24:31;12.90;42.60
3037;DHT22;1528;52.550;13.408;2023-03-14T05:27:17;12.90;42.10
3037;DHT22;1528;52.550;13.408;2023-03-14T05:30:05;12.90;42.20
3037;DHT22;1528;52.550;13.408;2023-03-14T05:32:51;12.90;42.10
3037;DHT22;1528;52.550;13.408;2023-03-14T05:35:36;13.00;41.80
3037;DHT22;1528;52.550;13.408;2023-03-14T05:38:22;12.90;42.10
3037;DHT22;1528;52.550;13.408;2023-03-14T05:41:08;13.00;41.00
3037;DHT22;1528;52.550;13.408;2023-03-14T05:43:53;13.00;41.30
3037;DHT22;1528;52.550;13.408;2023-03-14T05:46:41;12.90;42.10
3037;DHT22;1528;52.550;13.408;2023-03-14T05:49:26;13.00;40.90
3037;DHT22;1528;52.550;13.408;2023-03-14T05:52:12;13.00;41.20
3037;DHT22;1528;52.550;13.408;2023-03-14T05:54:57;12.90;41.30
3037;DHT22;1528;52.550;13.408;2023-03-14T05:57:43;13.00;40.80
3037;DHT22;1528;52.550;13.408;2023-03-14T06:00:28;12.90;41.00
3037;DHT22;1528;52.550;13.408;2023-03-14T06:03:15;12.90;41.00
3037;DHT22;1528;52.550;13.408;2023-03-14T06:06:01;12.90;40.90
3037;DHT22;1528;52.550;13.408;2023-03-14T06:08:47;13.00;40.80
3037;DHT22;1528;52.550;13.408;2023-03-14T06:11:32;13.10;39.60
3037;DHT22;1528;52.550;13.408;2023-03-14T06:14:18;13.20;39.30
3037;DHT22;1528;52.550;13.408;2023-03-14T06:17:03;13.20;38.60
3037;DHT22;1528;52.550;13.408;2023-03-14T06:19:50;13.10;39.00
3037;DHT22;1528;52.550;13.408;2023-03-14T06:22:36;13.20;39.00
3037;DHT22;1528;52.550;13.408;2023-03-14T06:25:22;13.30;38.40
3037;DHT22;1528;52.550;13.408;2023-03-14T06:28:08;13.30;38.10
3037;DHT22;1528;52.550;13.408;2023-03-14T06:30:54;13.10;37.80
3037;DHT22;1528;52.550;13.408;2023-03-14T06:33:39;13.20;37.70
3037;DHT22;1528;52.550;13.408;2023-03-14T06:36:26;13.30;37.40
3037;DHT22;1528;52.550;13.408;2023-03-14T06:39:12;13.30;37.50
3037;DHT22;1528;52.550;13.408;2023-03-14T06:41:58;13.40;37.40
3037;DHT22;1528;52.550;13.408;2023-03-14T06:44:44;13.40;37.10
3037;DHT22;1528;52.550;13.408;2023-03-14T06:47:29;13.50;36.70
3037;DHT22;1528;52.550;13.408;2023-03-14T06:50:15;13.50;37.00
3037;DHT22;1528;52.550;13.408;2023-03-14T06:53:02;13.50;36.10
3037;DHT22;1528;52.550;13.408;2023-03-14T06:55:48;13.50;35.90
3037;DHT22;1528;52.550;13.408;2023-03-14T06:58:34;13.60;35.80
3037;DHT22;1528;52.550;13.408;2023-03-14T07:01:23;13.60;35.60
3037;DHT22;1528;52.550;13.408;2023-03-14T07:04:09;13.50;35.60
3037;DHT22;1528;52.550;13.408;2023-03-14T07:06:55;13.60;35.60
3037;DHT22;1528;52.550;13.408;2023-03-14T07:09:42;13.90;34.70
3037;DHT22;1528;52.550;13.408;2023-03-14T07:12:28;13.90;34.50
3037;DHT22;1528;52.550;13.408;2023-03-14T07:15:14;13.90;34.40
3037;DHT22;1528;52.550;13.408;2023-03-14T07:18:00;13.80;34.30
3037;DHT22;1528;52.550;13.408;2023-03-14T07:20:45;13.70;35.20
3037;DHT22;1528;52.550;13.408;2023-03-14T07:23:31;13.70;34.90
3037;DHT22;1528;52.550;13.408;2023-03-14T07:26:19;13.70;34.90
3037;DHT22;1528;52.550;13.408;2023-03-14T07:29:04;13.50;35.10
3037;DHT22;1528;52.550;13.408;2023-03-14T07:31:50;13.70;34.80
3037;DHT22;1528;52.550;13.408;2023-03-14T07:34:36;13.70;35.10
3037;DHT22;1528;52.550;13.408;2023-03-14T07:37:22;13.70;34.80
3037;DHT22;1528;52.550;13.408;2023-03-14T07:40:08;13.70;34.60
3037;DHT22;1528;52.550;13.408;2023-03-14T07:42:57;13.30;35.20
3037;DHT22;1528;52.550;13.408;2023-03-14T07:45:45;13.50;35.50
3037;DHT22;1528;52.550;13.408;2023-03-14T07:48:31;13.40;35.50
3037;DHT22;1528;52.550;13.408;2023-03-14T07:51:17;13.40;35.50
3037;DHT22;1528;52.550;13.408;2023-03-14T07:54:02;13.30;36.00
3037;DHT22;1528;52.550;13.408;2023-03-14T07:56:51;13.40;35.60
3037;DHT22;1528;52.550;13.408;2023-03-14T07:59:38;13.50;35.30
3037;DHT22;1528;52.550;13.408;2023-03-14T08:02:24;13.50;35.60
3037;DHT22;1528;52.550;13.408;2023-03-14T08:05:09;13.50;35.60
3037;DHT22;1528;52.550;13.408;2023-03-14T08:07:55;13.70;35.10
3037;DHT22;1528;52.550;13.408;2023-03-14T08:10:41;13.80;35.20
3037;DHT22;1528;52.550;13.408;2023-03-14T08:13:27;13.80;35.20
3037;DHT22;1528;52.550;13.408;2023-03-14T08:16:14;13.70;35.20
3037;DHT22;1528;52.550;13.408;2023-03-14T08:18:59;13.90;34.60
3037;DHT22;1528;52.550;13.408;2023-03-14T08:21:45;14.10;34.40
3037;DHT22;1528;52.550;13.408;2023-03-14T08:24:31;14.30;33.50
3037;DHT22;1528;52.550;13.408;2023-03-14T08:27:16;14.50;33.10
3037;DHT22;1528;52.550;13.408;2023-03-14T08:30:03;14.60;32.50
3037;DHT22;1528;52.550;13.408;2023-03-14T08:32:50;14.70;32.60
3037;DHT22;1528;52.550;13.408;2023-03-14T08:35:36;14.70;32.60
3037;DHT22;1528;52.550;13.408;2023-03-14T08:38:22;14.60;32.90
3037;DHT22;1528;52.550;13.408;2023-03-14T08:41:08;14.60;32.30
3037;DHT22;1528;52.550;13.408;2023-03-14T08:43:53;14.70;32.20
3037;DHT22;1528;52.550;13.408;2023-03-14T08:46:38;14.70;32.30
3037;DHT22;1528;52.550;13.408;2023-03-14T08:49:26;14.90;31.60
3037;DHT22;1528;52.550;13.408;2023-03-14T08:52:11;14.80;32.10
3037;DHT22;1528;52.550;13.408;2023-03-14T08:54:57;14.70;32.20
3037;DHT22;1528;52.550;13.408;2023-03-14T08:57:43;14.80;31.80
3037;DHT22;1528;52.550;13.408;2023-03-14T09:00:28;14.70;31.80
3037;DHT22;1528;52.550;13.408;2023-03-14T09:03:14;14.80;32.10
3037;DHT22;1528;52.550;13.408;2023-03-14T09:06:05;14.60;32.70
3037;DHT22;1528;52.550;13.408;2023-03-14T09:08:52;14.50;33.10
3037;DHT22;1528;52.550;13.408;2023-03-14T09:11:37;14.60;34.40
3037;DHT22;1528;52.550;13.408;2023-03-14T09:14:23;14.60;30.90
3037;DHT22;1528;52.550;13.408;2023-03-14T09:17:09;14.60;31.10
3037;DHT22;1528;52.550;13.408;2023-03-14T09:19:54;14.70;30.80
3037;DHT22;1528;52.550;13.408;2023-03-14T09:22:41;14.80;30.50
3037;DHT22;1528;52.550;13.408;2023-03-14T09:25:27;14.70;30.50
3037;DHT22;1528;52.550;13.408;2023-03-14T09:28:12;14.80;30.40
3037;DHT22;1528;52.550;13.408;2023-03-14T09:31:05;14.80;30.60
3037;DHT22;1528;52.550;13.408;2023-03-14T09:33:52;14.90;30.20
3037;DHT22;1528;52.550;13.408;2023-03-14T09:36:37;14.80;29.80
3037;DHT22;1528;52.550;13.408;2023-03-14T09:39:25;14.90;29.70
3037;DHT22;1528;52.550;13.408;2023-03-14T09:42:14;15.10;29.00
3037;DHT22;1528;52.550;13.408;2023-03-14T09:45:03;15.20;28.60
3037;DHT22;1528;52.550;13.408;2023-03-14T09:47:49;15.40;29.20
3037;DHT22;1528;52.550;13.408;2023-03-14T09:50:39;15.80;28.60
3037;DHT22;1528;52.550;13.408;2023-03-14T09:53:27;15.90;28.00
3037;DHT22;1528;52.550;13.408;2023-03-14T09:56:18;15.80;26.70
3037;DHT22;1528;52.550;13.408;2023-03-14T09:59:06;15.70;28.10
3037;DHT22;1528;52.550;13.408;2023-03-14T10:01:57;15.80;27.90
3037;DHT22;1528;52.550;13.408;2023-03-14T10:04:45;15.70;27.50
3037;DHT22;1528;52.550;13.408;2023-03-14T10:07:32;15.70;26.90
3037;DHT22;1528;52.550;13.408;2023-03-14T10:10:20;15.60;27.10
3037;DHT22;1528;52.550;13.408;2023-03-14T10:13:15;15.60;26.80
3037;DHT22;1528;52.550;13.408;2023-03-14T10:16:02;15.70;27.60
3037;DHT22;1528;52.550;13.408;2023-03-14T10:18:48;15.60;27.40
3037;DHT22;1528;52.550;13.408;2023-03-14T10:21:38;15.50;27.60
3037;DHT22;1528;52.550;13.408;2023-03-14T10:24:27;15.70;27.40
3037;DHT22;1528;52.550;13.408;2023-03-14T10:27:18;15.80;27.10
3037;DHT22;1528;52.550;13.408;2023-03-14T10:30:14;15.80;27.20
3037;DHT22;1528;52.550;13.408;2023-03-14T10:33:19;15.90;27.00
3037;DHT22;1528;52.550;13.408;2023-03-14T10:36:14;15.70;26.50
3037;DHT22;1528;52.550;13.408;2023-03-14T10:39:28;15.80;26.10
3037;DHT22;1528;52.550;13.408;2023-03-14T10:42:19;15.70;25.90
3037;DHT22;1528;52.550;13.408;2023-03-14T10:45:31;15.60;26.20
3037;DHT22;1528;52.550;13.408;2023-03-14T10:48:20;15.40;26.70
3037;DHT22;1528;52.550;13.408;2023-03-14T10:51:07;15.70;26.50
3037;DHT22;1528;52.550;13.408;2023-03-14T10:54:00;15.70;26.60
3037;DHT22;1528;52.550;13.408;2023-03-14T10:56:56;15.70;25.90
3037;DHT22;1528;52.550;13.408;2023-03-14T10:59:43;15.80;25.70
3037;DHT22;1528;52.550;13.408;2023-03-14T11:02:42;15.70;25.50
3037;DHT22;1528;52.550;13.408;2023-03-14T11:05:31;15.70;25.50
3037;DHT22;1528;52.550;13.408;2023-03-14T11:08:25;15.60;26.00
3037;DHT22;1528;52.550;13.408;2023-03-14T11:11:15;15.70;25.70
3037;DHT22;1528;52.550;13.408;2023-03-14T11:14:12;15.80;26.10
3037;DHT22;1528;52.550;13.408;2023-03-14T11:17:07;15.80;25.00
3037;DHT22;1528;52.550;13.408;2023-03-14T11:20:04;15.90;25.00
3037;DHT22;1528;52.550;13.408;2023-03-14T11:23:02;15.80;25.20
3037;DHT22;1528;52.550;13.408;2023-03-14T11:25:56;15.70;25.20
3037;DHT22;1528;52.550;13.408;2023-03-14T11:28:49;15.70;25.70
3037;DHT22;1528;52.550;13.408;2023-03-14T11:31:38;15.70;25.40
3037;DHT22;1528;52.550;13.408;2023-03-14T11:34:28;15.80;25.70
3037;DHT22;1528;52.550;13.408;2023-03-14T11:37:19;15.90;25.50
3037;DHT22;1528;52.550;13.408;2023-03-14T11:40:12;15.90;25.70
3037;DHT22;1528;52.550;13.408;2023-03-14T11:43:03;15.90;25.80
3037;DHT22;1528;52.550;13.408;2023-03-14T11:45:51;15.90;25.90
3037;DHT22;1528;52.550;13.408;2023-03-14T11:48:43;15.90;25.80
3037;DHT22;1528;52.550;13.408;2023-03-14T11:51:34;15.90;26.00
3037;DHT22;1528;52.550;13.408;2023-03-14T11:54:26;16.00;26.60
3037;DHT22;1528;52.550;13.408;2023-03-14T11:57:17;16.20;25.80
3037;DHT22;1528;52.550;13.408;2023-03-14T12:00:13;16.20;26.50
3037;DHT22;1528;52.550;13.408;2023-03-14T12:03:02;16.20;26.50
3037;DHT22;1528;52.550;13.408;2023-03-14T12:05:59;16.40;26.50
3037;DHT22;1528;52.550;13.408;2023-03-14T12:08:50;16.60;26.60
3037;DHT22;1528;52.550;13.408;2023-03-14T12:11:41;16.70;26.20
3037;DHT22;1528;52.550;13.408;2023-03-14T12:14:32;16.80;26.00
3037;DHT22;1528;52.550;13.408;2023-03-14T12:17:21;16.80;26.40
3037;DHT22;1528;52.550;13.408;2023-03-14T12:20:16;16.90;26.20
3037;DHT22;1528;52.550;13.408;2023-03-14T12:23:04;16.90;26.10
3037;DHT22;1528;52.550;13.408;2023-03-14T12:26:06;16.60;26.70
3037;DHT22;1528;52.550;13.408;2023-03-14T12:29:14;16.50;26.40
3037;DHT22;1528;52.550;13.408;2023-03-14T12:32:22;16.60;26.60
3037;DHT22;1528;52.550;13.408;2023-03-14T12:35:33;16.40;26.90
3037;DHT22;1528;52.550;13.408;2023-03-14T12:38:25;16.50;27.30
3037;DHT22;1528;52.550;13.408;2023-03-14T12:41:15;16.80;26.40
3037;DHT22;1528;52.550;13.408;2023-03-14T12:47:46;17.10;26.80
3037;DHT22;1528;52.550;13.408;2023-03-14T12:50:45;17.50;25.40
3037;DHT22;1528;52.550;13.408;2023-03-14T12:54:00;17.50;26.00
3037;DHT22;1528;52.550;13.408;2023-03-14T12:57:22;17.40;25.70
3037;DHT22;1528;52.550;13.408;2023-03-14T13:00:18;17.50;25.30
3037;DHT22;1528;52.550;13.408;2023-03-14T13:03:18;17.50;26.10
3037;DHT22;1528;52.550;13.408;2023-03-14T13:06:08;17.20;25.00
3037;DHT22;1528;52.550;13.408;2023-03-14T13:08:54;17.20;25.20
3037;DHT22;1528;52.550;13.408;2023-03-14T13:11:41;17.00;28.50
3037;DHT22;1528;52.550;13.408;2023-03-14T13:14:29;16.70;36.20
3037;DHT22;1528;52.550;13.408;2023-03-14T13:17:22;16.20;36.80
3037;DHT22;1528;52.550;13.408;2023-03-14T13:20:14;16.30;34.70
3037;DHT22;1528;52.550;13.408;2023-03-14T13:23:02;16.40;33.70
3037;DHT22;1528;52.550;13.408;2023-03-14T13:25:47;16.30;33.30
3037;DHT22;1528;52.550;13.408;2023-03-14T13:28:36;16.30;33.90
3037;DHT22;1528;52.550;13.408;2023-03-14T13:31:25;16.30;35.00
3037;DHT22;1528;52.550;13.408;2023-03-14T13:34:11;16.30;32.50
3037;DHT22;1528;52.550;13.408;2023-03-14T13:36:58;16.40;34.40
3037;DHT22;1528;52.550;13.408;2023-03-14T13:39:49;16.30;33.10
3037;DHT22;1528;52.550;13.408;2023-03-14T13:42:34;16.10;34.50
3037;DHT22;1528;52.550;13.408;2023-03-14T13:45:20;15.90;34.70
3037;DHT22;1528;52.550;13.408;2023-03-14T13:48:09;16.00;35.20
3037;DHT22;1528;52.550;13.408;2023-03-14T13:50:56;16.30;33.70
3037;DHT22;1528;52.550;13.408;2023-03-14T13:53:46;16.40;34.50
3037;DHT22;1528;52.550;13.408;2023-03-14T13:56:33;16.90;31.90
3037;DHT22;1528;52.550;13.408;2023-03-14T13:59:23;17.40;31.00
3037;DHT22;1528;52.550;13.408;2023-03-14T14:02:13;17.80;29.50
3037;DHT22;1528;52.550;13.408;2023-03-14T14:05:00;18.00;28.00
3037;DHT22;1528;52.550;13.408;2023-03-14T14:07:45;18.20;27.80
3037;DHT22;1528;52.550;13.408;2023-03-14T14:10:32;18.40;27.10
3037;DHT22;1528;52.550;13.408;2023-03-14T14:13:22;18.60;26.90
3037;DHT22;1528;52.550;13.408;2023-03-14T14:16:09;18.60;25.90
3037;DHT22;1528;52.550;13.408;2023-03-14T14:18:56;18.60;26.20
3037;DHT22;1528;52.550;13.408;2023-03-14T14:21:42;18.50;25.30
3037;DHT22;1528;52.550;13.408;2023-03-14T14:24:30;18.40;25.10
3037;DHT22;1528;52.550;13.408;2023-03-14T14:27:19;18.20;25.30
3037;DHT22;1528;52.550;13.408;2023-03-14T14:30:29;18.00;25.00
3037;DHT22;1528;52.550;13.408;2023-03-14T14:33:20;18.00;25.30
3037;DHT22;1528;52.550;13.408;2023-03-14T14:36:14;17.70;25.80
3037;DHT22;1528;52.550;13.408;2023-03-14T14:39:03;17.30;26.40
3037;DHT22;1528;52.550;13.408;2023-03-14T14:41:51;17.20;26.90
3037;DHT22;1528;52.550;13.408;2023-03-14T14:44:38;17.20;26.80
3037;DHT22;1528;52.550;13.408;2023-03-14T14:47:25;17.00;27.00
3037;DHT22;1528;52.550;13.408;2023-03-14T14:50:25;17.00;27.80
3037;DHT22;1528;52.550;13.408;2023-03-14T14:53:23;17.00;27.20
3037;DHT22;1528;52.550;13.408;2023-03-14T14:56:17;16.90;27.20
3037;DHT22;1528;52.550;13.408;2023-03-14T14:59:04;16.90;27.00
3037;DHT22;1528;52.550;13.408;2023-03-14T15:01:56;16.70;27.00
3037;DHT22;1528;52.550;13.408;2023-03-14T15:04:42;16.70;27.10
3037;DHT22;1528;52.550;13.408;2023-03-14T15:07:28;16.60;26.80
3037;DHT22;1528;52.550;13.408;2023-03-14T15:10:16;16.40;27.40
3037;DHT22;1528;52.550;13.408;2023-03-14T15:13:02;16.30;27.40
3037;DHT22;1528;52.550;13.408;2023-03-14T15:15:49;16.10;27.70
3037;DHT22;1528;52.550;13.408;2023-03-14T15:18:41;16.00;28.70
3037;DHT22;1528;52.550;13.408;2023-03-14T15:21:28;15.10;43.40
3037;DHT22;1528;52.550;13.408;2023-03-14T15:24:13;10.90;99.90
3037;DHT22;1528;52.550;13.408;2023-03-14T15:26:59;9.30;99.90
3037;DHT22;1528;52.550;13.408;2023-03-14T15:29:50;8.20;99.90
3037;DHT22;1528;52.550;13.408;2023-03-14T15:32:50;7.80;99.90
3037;DHT22;1528;52.550;13.408;2023-03-14T15:35:46;7.70;99.90
3037;DHT22;1528;52.550;13.408;2023-03-14T15:38:53;7.90;99.90
3037;DHT22;1528;52.550;13.408;2023-03-14T15:42:00;7.60;99.90
3037;DHT22;1528;52.550;13.408;2023-03-14T15:45:03;7.40;99.90
3037;DHT22;1528;52.550;13.408;2023-03-14T15:47:51;7.10;99.90
3037;DHT22;1528;52.550;13.408;2023-03-14T15:54:24;7.10;99.90
3037;DHT22;1528;52.550;13.408;2023-03-14T15:57:24;6.70;99.90
3037;DHT22;1528;52.550;13.408;2023-03-14T16:00:28;6.30;99.90
3037;DHT22;1528;52.550;13.408;2023-03-14T16:03:31;5.80;99.90
3037;DHT22;1528;52.550;13.408;2023-03-14T16:06:31;5.70;99.90
3037;DHT22;1528;52.550;13.408;2023-03-14T16:12:05;5.50;99.90
3037;DHT22;1528;52.550;13.408;2023-03-14T16:15:04;5.10;99.90
3037;DHT22;1528;52.550;13.408;2023-03-14T16:17:52;5.10;99.90
3037;DHT22;1528;52.550;13.408;2023-03-14T16:20:56;4.80;99.90
3037;DHT22;1528;52.550;13.408;2023-03-14T16:23:43;4.60;99.90
3037;DHT22;1528;52.550;13.408;2023-03-14T16:26:44;4.50;99.90
3037;DHT22;1528;52.550;13.408;2023-03-14T16:29:35;4.20;99.90
3037;DHT22;1528;52.550;13.408;2023-03-14T16:32:50;3.80;99.90
3037;DHT22;1528;52.550;13.408;2023-03-14T16:35:54;3.70;99.90
3037;DHT22;1528;52.550;13.408;2023-03-14T16:38:45;3.80;99.90
3037;DHT22;1528;52.550;13.408;2023-03-14T16:41:43;3.60;99.90
3037;DHT22;1528;52.550;13.408;2023-03-14T16:44:47;3.60;99.90
3037;DHT22;1528;52.550;13.408;2023-03-14T16:47:42;3.60;99.90
3037;DHT22;1528;52.550;13.408;2023-03-14T16:50:43;3.60;99.90
3037;DHT22;1528;52.550;13.408;2023-03-14T16:53:32;3.50;99.90
3037;DHT22;1528;52.550;13.408;2023-03-14T16:56:19;3.60;99.90
3037;DHT22;1528;52.550;13.408;2023-03-14T17:05:49;3.50;99.90
3037;DHT22;1528;52.550;13.408;2023-03-14T17:08:35;3.50;99.90
3037;DHT22;1528;52.550;13.408;2023-03-14T17:11:22;3.40;99.90
3037;DHT22;1528;52.550;13.408;2023-03-14T17:14:07;3.40;99.90
3037;DHT22;1528;52.550;13.408;2023-03-14T17:16:53;3.40;99.90
3037;DHT22;1528;52.550;13.408;2023-03-14T17:19:39;3.30;99.90
3037;DHT22;1528;52.550;13.408;2023-03-14T17:22:26;3.20;99.90
3037;DHT22;1528;52.550;13.408;2023-03-14T17:25:11;3.20;99.90
3037;DHT22;1528;52.550;13.408;2023-03-14T17:27:57;3.10;99.90
3037;DHT22;1528;52.550;13.408;2023-03-14T17:30:43;3.30;99.90
3037;DHT22;1528;52.550;13.408;2023-03-14T17:33:28;3.30;99.90
3037;DHT22;1528;52.550;13.408;2023-03-14T17:36:14;3.40;99.90
3037;DHT22;1528;52.550;13.408;2023-03-14T17:39:02;3.40;99.90
3037;DHT22;1528;52.550;13.408;2023-03-14T17:41:48;3.40;99.90
3037;DHT22;1528;52.550;13.408;2023-03-14T17:44:34;3.40;99.90
3037;DHT22;1528;52.550;13.408;2023-03-14T17:47:19;3.40;99.90
3037;DHT22;1528;52.550;13.408;2023-03-14T17:50:06;3.50;99.90
3037;DHT22;1528;52.550;13.408;2023-03-14T17:52:51;3.40;99.90
3037;DHT22;1528;52.550;13.408;2023-03-14T17:55:38;3.40;99.90
3037;DHT22;1528;52.550;13.408;2023-03-14T17:58:24;3.50;99.90
3037;DHT22;1528;52.550;13.408;2023-03-14T18:01:12;3.40;99.90
3037;DHT22;1528;52.550;13.408;2023-03-14T18:03:58;3.60;99.90
3037;DHT22;1528;52.550;13.408;2023-03-14T18:06:44;3.70;99.90
3037;DHT22;1528;52.550;13.408;2023-03-14T18:09:30;3.70;99.90
3037;DHT22;1528;52.550;13.408;2023-03-14T18:12:17;3.70;99.90
3037;DHT22;1528;52.550;13.408;2023-03-14T18:15:03;3.70;99.90
3037;DHT22;1528;52.550;13.408;2023-03-14T18:17:48;3.70;99.90
3037;DHT22;1528;52.550;13.408;2023-03-14T18:20:34;3.80;99.90
3037;DHT22;1528;52.550;13.408;2023-03-14T18:23:21;4.00;99.90